RUNWAY INFORMATION
Runway Length Width Elevation Displaced
Threshold
Heading | Runway Length Width Elevation Displaced
Threshold
Heading
09L 12799 ft 164 ft 79 ft 1007 ft 90 | 27R 12799 ft 164 ft 78 ft 0 ft 270
09R 12001 ft 148 ft 75 ft 1013 ft 90 | 27L 12001 ft 148 ft 77 ft 0 ft 270

 AIRPORT FREQUENCIES
Type APP Name APP Frequency 119.725 MHZ
Type ATIS Name ATIS Frequency 128.075 MHZ
Type CLD Name CLNC DEL Frequency 121.975 MHZ
Type GND Name GND Frequency 121.7 MHZ
Type TWR Name TWR Frequency 118.475 MHZ

 AIRPORT NEAR NAVIGATION AIDS
Type VOR-DME Name London Frequency 113600 KHZ

 METAR AND TAF INFORMATION
METAR FOR EGLL
ADDS - METARS form results

(1412 UTC 01 August 2021)
Data provider http://aviationweather.gov/metar/data/
 
METAR text: EGLL 011350Z AUTO 36005KT 320V040 9999 FEW021/// SCT031/// BKN046/// //////TCU 19/14 Q1011 NOSIG
Conditions at: EGLL (LONDON/HEATHROW , GB) observed 1350 UTC 01 August 2021
Temperature: 19.0°C (66°F)
Dewpoint: 14.0°C (57°F) [RH = 73%]
Pressure (altimeter): 29.85 inches Hg (1011.0 mb)
Winds: from the N (360 degrees) at 6 MPH (5 knots; 2.6 m/s)
Visibility: 6 or more miles (10+ km)
Ceiling: 4600 feet AGL
Clouds: few clouds at 2100 feet AGL
scattered clouds at 3100 feet AGL
broken clouds at 4600 feet AGL
Weather: no significant weather observed at this time

METAR text: EGLL 011320Z AUTO 33007KT 300V010 9999 BKN029/// BKN038/// //////TCU 20/14 Q1011
Conditions at: EGLL (LONDON/HEATHROW , GB) observed 1320 UTC 01 August 2021
Temperature: 20.0°C (68°F)
Dewpoint: 14.0°C (57°F) [RH = 68%]
Pressure (altimeter): 29.85 inches Hg (1011.0 mb)
Winds: from the NNW (330 degrees) at 8 MPH (7 knots; 3.6 m/s)
Visibility: 6 or more miles (10+ km)
Ceiling: 2900 feet AGL
Clouds: broken clouds at 2900 feet AGL
broken clouds at 3800 feet AGL
Weather: no significant weather observed at this time

Forecast for: EGLL (LONDON/HEATHROW , GB)
Text: TAF EGLL 011056Z 0112/0218 33005KT 9999 BKN040
Forecast period: 1200 UTC 01 August 2021 to 1800 UTC 02 August 2021
Forecast type: FROM: standard forecast or significant change
Winds: from the NNW (330 degrees) at 6 MPH (5 knots; 2.6 m/s)
Visibility: 6 or more miles (10+ km)
Ceiling: 4000 feet AGL
Clouds: broken clouds at 4000 feet AGL
Weather: no significant weather forecast for this period
Text: PROB30
Forecast period: 1200 to 1800 UTC 01 August 2021
Forecast type: TEMPORARY: The following changes expected for less than half the time period
Visibility: 5 miles (8 km)
Ceiling: unknown
Clouds: missing
Weather: SHRA  (rain showers)
Text: TEMPO 0112/0118 8000 SHRA
Forecast period: 1500 to 1800 UTC 02 August 2021
Forecast type: TEMPORARY: The following changes expected for less than half the time period
Visibility: 5 miles (8 km)
Ceiling: unknown
Clouds: missing
Weather: SHRA  (rain showers)



© 2013 - 2021, FlightSimLog.org - Powered by Virtual Airlines Manager